Current Conditions
Mostly Scattered
Clouds



Pressure
30.06 (inHG) - 1017.92 (mb)
Visibility

10.0 (mimiles) - 16.1 (km)
   Temperature
59  °F
15°C
52  °F
Dewpoint
77  %
 Humidity
   Wind Speed
7  mph
6  kts
11  km/h
3.1  m/s
   Wind Direction
 130°
South East
   Airport Data
0S9
Location Jefferson County International 5 mi (8.05 km)
Metar :K0S9 241855Z AUTO 13006KT 10SM SCT023 BKN028 OVC033 15/11 A3006 RMK AO2
Mon 24th June 11:55 am
   Raw Metar Info
Raw METAR is the most common format in the world for the transmission of observational weather data. It is highly standardized through the International Civil Aviation Organization (ICAO), which allows it to be understood throughout most of the world.
   API Info
Data Provided by
https://www.checkwx.com/weather/0S9
   © Info
CSS/SVG/PHP scripts were developed by weather34.com for use in the weather34 template © 2015-2019

Guide Info provided by Metar-Wikipedia